sensor_id;sensor_type;location;lat;lon;timestamp;pressure;altitude;pressure_sealevel;temperature;humidity
54872;BME280;43914;57.680;11.982;2022-11-15T00:00:54;100831.97;;;8.05;100.00
54872;BME280;43914;57.680;11.982;2022-11-15T00:03:23;100813.08;;;8.02;100.00
54872;BME280;43914;57.680;11.982;2022-11-15T00:05:52;100818.09;;;8.01;100.00
54872;BME280;43914;57.680;11.982;2022-11-15T00:08:19;100809.22;;;7.97;100.00
54872;BME280;43914;57.680;11.982;2022-11-15T00:10:56;100810.55;;;7.97;100.00
54872;BME280;43914;57.680;11.982;2022-11-15T00:13:24;100808.39;;;7.96;100.00
54872;BME280;43914;57.680;11.982;2022-11-15T00:15:51;100803.37;;;7.97;100.00
54872;BME280;43914;57.680;11.982;2022-11-15T00:18:17;100800.19;;;7.98;100.00
54872;BME280;43914;57.680;11.982;2022-11-15T00:20:44;100802.38;;;7.98;100.00
54872;BME280;43914;57.680;11.982;2022-11-15T00:23:10;100800.85;;;8.00;100.00
54872;BME280;43914;57.680;11.982;2022-11-15T00:25:36;100792.16;;;8.02;100.00
54872;BME280;43914;57.680;11.982;2022-11-15T00:28:02;100785.64;;;8.00;100.00
54872;BME280;43914;57.680;11.982;2022-11-15T00:30:29;100781.45;;;8.02;100.00
54872;BME280;43914;57.680;11.982;2022-11-15T00:32:55;100786.80;;;8.02;100.00
54872;BME280;43914;57.680;11.982;2022-11-15T00:35:21;100776.95;;;8.02;100.00
54872;BME280;43914;57.680;11.982;2022-11-15T00:37:47;100780.63;;;8.01;100.00
54872;BME280;43914;57.680;11.982;2022-11-15T00:40:14;100777.28;;;8.03;100.00
54872;BME280;43914;57.680;11.982;2022-11-15T00:42:41;100770.74;;;8.02;100.00
54872;BME280;43914;57.680;11.982;2022-11-15T00:45:13;100767.73;;;7.97;100.00
54872;BME280;43914;57.680;11.982;2022-11-15T00:47:39;100766.91;;;7.96;100.00
54872;BME280;43914;57.680;11.982;2022-11-15T00:50:10;100767.40;;;7.96;99.92
54872;BME280;43914;57.680;11.982;2022-11-15T00:52:34;100763.20;;;7.93;99.20
54872;BME280;43914;57.680;11.982;2022-11-15T00:54:59;100765.05;;;7.88;99.01
54872;BME280;43914;57.680;11.982;2022-11-15T00:57:25;100751.83;;;7.87;98.98
54872;BME280;43914;57.680;11.982;2022-11-15T00:59:51;100750.16;;;7.86;99.01
54872;BME280;43914;57.680;11.982;2022-11-15T01:02:17;100750.83;;;7.84;98.70
54872;BME280;43914;57.680;11.982;2022-11-15T01:04:46;100752.84;;;7.82;98.45
54872;BME280;43914;57.680;11.982;2022-11-15T01:07:11;100746.48;;;7.78;98.76
54872;BME280;43914;57.680;11.982;2022-11-15T01:09:37;100744.63;;;7.79;98.46
54872;BME280;43914;57.680;11.982;2022-11-15T01:12:03;100741.47;;;7.75;98.57
54872;BME280;43914;57.680;11.982;2022-11-15T01:14:30;100739.45;;;7.77;98.96
54872;BME280;43914;57.680;11.982;2022-11-15T01:16:56;100745.81;;;7.76;98.90
54872;BME280;43914;57.680;11.982;2022-11-15T01:19:22;100749.49;;;7.75;98.68
54872;BME280;43914;57.680;11.982;2022-11-15T01:21:49;100744.63;;;7.75;98.80
54872;BME280;43914;57.680;11.982;2022-11-15T01:24:16;100740.28;;;7.78;98.83
54872;BME280;43914;57.680;11.982;2022-11-15T01:26:42;100738.13;;;7.77;98.46
54872;BME280;43914;57.680;11.982;2022-11-15T01:29:08;100730.77;;;7.75;98.92
54872;BME280;43914;57.680;11.982;2022-11-15T01:31:34;100728.76;;;7.77;98.99
54872;BME280;43914;57.680;11.982;2022-11-15T01:34:00;100719.58;;;7.80;98.92
54872;BME280;43914;57.680;11.982;2022-11-15T01:36:26;100724.41;;;7.80;98.77
54872;BME280;43914;57.680;11.982;2022-11-15T01:38:56;100731.43;;;7.82;98.84
54872;BME280;43914;57.680;11.982;2022-11-15T01:41:26;100734.63;;;7.81;99.01
54872;BME280;43914;57.680;11.982;2022-11-15T01:43:55;100722.91;;;7.82;99.05
54872;BME280;43914;57.680;11.982;2022-11-15T01:46:30;100724.92;;;7.80;98.76
54872;BME280;43914;57.680;11.982;2022-11-15T01:49:10;100722.89;;;7.78;98.83
54872;BME280;43914;57.680;11.982;2022-11-15T01:51:38;100720.73;;;7.77;98.83
54872;BME280;43914;57.680;11.982;2022-11-15T01:54:07;100725.41;;;7.75;99.09
54872;BME280;43914;57.680;11.982;2022-11-15T01:56:38;100714.53;;;7.73;99.01
54872;BME280;43914;57.680;11.982;2022-11-15T01:59:08;100714.71;;;7.71;99.07
54872;BME280;43914;57.680;11.982;2022-11-15T02:01:35;100712.38;;;7.68;99.24
54872;BME280;43914;57.680;11.982;2022-11-15T02:04:06;100707.69;;;7.66;99.73
54872;BME280;43914;57.680;11.982;2022-11-15T02:06:37;100709.18;;;7.69;99.83
54872;BME280;43914;57.680;11.982;2022-11-15T02:09:04;100708.69;;;7.69;99.56
54872;BME280;43914;57.680;11.982;2022-11-15T02:11:30;100709.36;;;7.71;99.60
54872;BME280;43914;57.680;11.982;2022-11-15T02:13:58;100699.33;;;7.69;99.50
54872;BME280;43914;57.680;11.982;2022-11-15T02:31:44;100693.62;;;7.60;98.64
54872;BME280;43914;57.680;11.982;2022-11-15T02:34:25;100689.27;;;7.55;98.92
54872;BME280;43914;57.680;11.982;2022-11-15T02:37:11;100691.80;;;7.52;98.84
54872;BME280;43914;57.680;11.982;2022-11-15T02:39:46;100682.41;;;7.48;98.55
54872;BME280;43914;57.680;11.982;2022-11-15T02:42:24;100679.73;;;7.44;98.54
54872;BME280;43914;57.680;11.982;2022-11-15T02:45:09;100670.37;;;7.40;98.65
54872;BME280;43914;57.680;11.982;2022-11-15T02:47:43;100674.89;;;7.39;98.87
54872;BME280;43914;57.680;11.982;2022-11-15T02:50:15;100667.70;;;7.35;98.35
54872;BME280;43914;57.680;11.982;2022-11-15T02:52:47;100665.20;;;7.34;97.98
54872;BME280;43914;57.680;11.982;2022-11-15T02:55:33;100668.36;;;7.33;98.31
54872;BME280;43914;57.680;11.982;2022-11-15T03:01:15;100671.52;;;7.33;98.70
54872;BME280;43914;57.680;11.982;2022-11-15T03:12:06;100662.67;;;7.24;98.61
54872;BME280;43914;57.680;11.982;2022-11-15T03:14:54;100670.84;;;7.22;99.03
54872;BME280;43914;57.680;11.982;2022-11-15T03:17:28;100669.17;;;7.21;99.02
54872;BME280;43914;57.680;11.982;2022-11-15T03:20:04;100671.17;;;7.19;99.06
54872;BME280;43914;57.680;11.982;2022-11-15T03:22:37;100674.03;;;7.18;99.23
54872;BME280;43914;57.680;11.982;2022-11-15T03:25:06;100667.50;;;7.16;99.21
54872;BME280;43914;57.680;11.982;2022-11-15T03:27:39;100675.52;;;7.16;99.24
54872;BME280;43914;57.680;11.982;2022-11-15T03:30:11;100672.99;;;7.15;99.26
54872;BME280;43914;57.680;11.982;2022-11-15T03:32:41;100669.50;;;7.14;99.20
54872;BME280;43914;57.680;11.982;2022-11-15T03:35:12;100665.97;;;7.14;99.32
54872;BME280;43914;57.680;11.982;2022-11-15T03:37:59;100668.16;;;7.14;99.50
54872;BME280;43914;57.680;11.982;2022-11-15T03:40:38;100668.98;;;7.15;99.46
54872;BME280;43914;57.680;11.982;2022-11-15T03:46:15;100666.64;;;7.16;99.83
54872;BME280;43914;57.680;11.982;2022-11-15T03:48:45;100664.81;;;7.12;100.00
54872;BME280;43914;57.680;11.982;2022-11-15T03:51:16;100666.16;;;7.12;100.00
54872;BME280;43914;57.680;11.982;2022-11-15T03:53:42;100663.30;;;7.10;100.00
54872;BME280;43914;57.680;11.982;2022-11-15T03:56:08;100664.15;;;7.10;100.00
54872;BME280;43914;57.680;11.982;2022-11-15T03:58:34;100666.15;;;7.08;100.00
54872;BME280;43914;57.680;11.982;2022-11-15T04:01:00;100662.96;;;7.08;100.00
54872;BME280;43914;57.680;11.982;2022-11-15T04:03:26;100664.30;;;7.08;100.00
54872;BME280;43914;57.680;11.982;2022-11-15T04:05:52;100667.16;;;7.07;100.00
54872;BME280;43914;57.680;11.982;2022-11-15T04:08:18;100663.80;;;7.05;100.00
54872;BME280;43914;57.680;11.982;2022-11-15T04:10:48;100669.16;;;7.05;100.00
54872;BME280;43914;57.680;11.982;2022-11-15T04:13:17;100657.79;;;7.03;100.00
54872;BME280;43914;57.680;11.982;2022-11-15T04:15:43;100661.09;;;7.01;100.00
54872;BME280;43914;57.680;11.982;2022-11-15T04:18:09;100661.95;;;7.01;100.00
54872;BME280;43914;57.680;11.982;2022-11-15T04:20:35;100660.46;;;7.03;100.00
54872;BME280;43914;57.680;11.982;2022-11-15T04:23:20;100659.95;;;7.03;100.00
54872;BME280;43914;57.680;11.982;2022-11-15T04:26:09;100655.94;;;7.03;100.00
54872;BME280;43914;57.680;11.982;2022-11-15T04:28:37;100652.08;;;7.02;100.00
54872;BME280;43914;57.680;11.982;2022-11-15T04:31:07;100655.12;;;7.03;100.00
54872;BME280;43914;57.680;11.982;2022-11-15T04:33:36;100652.93;;;7.02;100.00
54872;BME280;43914;57.680;11.982;2022-11-15T04:36:02;100655.79;;;7.05;100.00
54872;BME280;43914;57.680;11.982;2022-11-15T04:38:47;100646.10;;;7.04;100.00
54872;BME280;43914;57.680;11.982;2022-11-15T04:41:13;100637.75;;;7.03;100.00
54872;BME280;43914;57.680;11.982;2022-11-15T04:43:38;100641.58;;;7.04;100.00
54872;BME280;43914;57.680;11.982;2022-11-15T04:46:04;100639.08;;;7.03;100.00
54872;BME280;43914;57.680;11.982;2022-11-15T04:48:30;100639.72;;;7.01;100.00
54872;BME280;43914;57.680;11.982;2022-11-15T04:50:56;100639.56;;;7.02;100.00
54872;BME280;43914;57.680;11.982;2022-11-15T04:53:22;100642.42;;;7.05;100.00
54872;BME280;43914;57.680;11.982;2022-11-15T04:55:48;100638.42;;;7.05;100.00
54872;BME280;43914;57.680;11.982;2022-11-15T04:58:14;100633.22;;;7.03;100.00
54872;BME280;43914;57.680;11.982;2022-11-15T05:00:40;100631.07;;;7.03;100.00
54872;BME280;43914;57.680;11.982;2022-11-15T05:03:07;100631.89;;;7.03;100.00
54872;BME280;43914;57.680;11.982;2022-11-15T05:05:53;100637.75;;;7.03;100.00
54872;BME280;43914;57.680;11.982;2022-11-15T05:08:19;100629.73;;;7.03;100.00
54872;BME280;43914;57.680;11.982;2022-11-15T05:10:52;100638.56;;;7.03;100.00
54872;BME280;43914;57.680;11.982;2022-11-15T05:13:18;100626.20;;;7.02;100.00
54872;BME280;43914;57.680;11.982;2022-11-15T05:15:44;100632.41;;;7.03;100.00
54872;BME280;43914;57.680;11.982;2022-11-15T05:18:10;100622.20;;;7.02;100.00
54872;BME280;43914;57.680;11.982;2022-11-15T05:20:36;100624.54;;;7.01;100.00
54872;BME280;43914;57.680;11.982;2022-11-15T05:23:08;100628.55;;;7.01;100.00
54872;BME280;43914;57.680;11.982;2022-11-15T05:25:35;100620.68;;;7.00;100.00
54872;BME280;43914;57.680;11.982;2022-11-15T05:28:02;100628.03;;;7.02;100.00
54872;BME280;43914;57.680;11.982;2022-11-15T05:30:30;100628.55;;;7.01;100.00
54872;BME280;43914;57.680;11.982;2022-11-15T05:32:55;100627.55;;;7.02;100.00
54872;BME280;43914;57.680;11.982;2022-11-15T05:35:30;100623.53;;;7.02;100.00
54872;BME280;43914;57.680;11.982;2022-11-15T05:37:59;100620.86;;;7.02;100.00
54872;BME280;43914;57.680;11.982;2022-11-15T05:40:26;100625.20;;;7.03;100.00
54872;BME280;43914;57.680;11.982;2022-11-15T05:42:53;100618.05;;;7.04;100.00
54872;BME280;43914;57.680;11.982;2022-11-15T05:45:19;100615.86;;;7.03;100.00
54872;BME280;43914;57.680;11.982;2022-11-15T05:47:46;100615.03;;;7.03;100.00
54872;BME280;43914;57.680;11.982;2022-11-15T05:50:14;100614.86;;;7.04;100.00
54872;BME280;43914;57.680;11.982;2022-11-15T05:52:42;100621.05;;;7.05;100.00
54872;BME280;43914;57.680;11.982;2022-11-15T05:55:09;100633.22;;;7.03;100.00
54872;BME280;43914;57.680;11.982;2022-11-15T05:57:35;100639.56;;;7.02;100.00
54872;BME280;43914;57.680;11.982;2022-11-15T06:00:03;100630.37;;;7.01;100.00
54872;BME280;43914;57.680;11.982;2022-11-15T06:02:30;100628.88;;;7.02;100.00
54872;BME280;43914;57.680;11.982;2022-11-15T06:04:55;100620.68;;;7.00;100.00
54872;BME280;43914;57.680;11.982;2022-11-15T06:07:22;100621.86;;;7.01;100.00
54872;BME280;43914;57.680;11.982;2022-11-15T06:09:48;100622.34;;;7.01;100.00
54872;BME280;43914;57.680;11.982;2022-11-15T06:12:13;100616.67;;;7.00;100.00
54872;BME280;43914;57.680;11.982;2022-11-15T06:14:39;100615.52;;;6.98;100.00
54872;BME280;43914;57.680;11.982;2022-11-15T06:17:05;100613.84;;;6.97;100.00
54872;BME280;43914;57.680;11.982;2022-11-15T06:19:31;100613.84;;;6.97;100.00
54872;BME280;43914;57.680;11.982;2022-11-15T06:22:00;100617.34;;;6.98;100.00
54872;BME280;43914;57.680;11.982;2022-11-15T06:24:26;100618.52;;;6.99;100.00
54872;BME280;43914;57.680;11.982;2022-11-15T06:26:52;100619.86;;;6.99;100.00
54872;BME280;43914;57.680;11.982;2022-11-15T06:29:18;100627.36;;;7.00;100.00
54872;BME280;43914;57.680;11.982;2022-11-15T06:31:44;100628.21;;;7.00;100.00
54872;BME280;43914;57.680;11.982;2022-11-15T06:34:10;100618.86;;;7.00;100.00
54872;BME280;43914;57.680;11.982;2022-11-15T06:36:36;100623.69;;;7.01;100.00
54872;BME280;43914;57.680;11.982;2022-11-15T06:39:03;100623.53;;;7.02;100.00
54872;BME280;43914;57.680;11.982;2022-11-15T06:41:29;100627.70;;;7.01;99.79
54872;BME280;43914;57.680;11.982;2022-11-15T06:43:56;100618.67;;;7.02;100.00
54872;BME280;43914;57.680;11.982;2022-11-15T06:46:22;100623.53;;;7.02;100.00
54872;BME280;43914;57.680;11.982;2022-11-15T06:48:51;100631.55;;;7.02;99.96
54872;BME280;43914;57.680;11.982;2022-11-15T06:51:17;100627.55;;;7.02;99.79
54872;BME280;43914;57.680;11.982;2022-11-15T06:53:44;100625.88;;;7.01;100.00
54872;BME280;43914;57.680;11.982;2022-11-15T06:56:10;100623.38;;;7.04;99.93
54872;BME280;43914;57.680;11.982;2022-11-15T06:58:36;100629.55;;;7.04;99.89
54872;BME280;43914;57.680;11.982;2022-11-15T07:01:07;100624.72;;;7.04;99.57
54872;BME280;43914;57.680;11.982;2022-11-15T07:03:36;100628.06;;;7.06;99.98
54872;BME280;43914;57.680;11.982;2022-11-15T07:06:03;100638.09;;;7.08;99.98
54872;BME280;43914;57.680;11.982;2022-11-15T07:08:30;100635.75;;;7.09;99.73
54872;BME280;43914;57.680;11.982;2022-11-15T07:11:02;100627.73;;;7.09;99.51
54872;BME280;43914;57.680;11.982;2022-11-15T07:13:31;100635.09;;;7.11;99.54
54872;BME280;43914;57.680;11.982;2022-11-15T07:16:03;100632.89;;;7.11;99.57
54872;BME280;43914;57.680;11.982;2022-11-15T07:18:30;100642.59;;;7.12;99.32
54872;BME280;43914;57.680;11.982;2022-11-15T07:21:04;100579.86;;;6.69;99.42
54872;BME280;43914;57.680;11.982;2022-11-15T07:23:31;100651.61;;;7.15;99.27
54872;BME280;43914;57.680;11.982;2022-11-15T07:25:58;100664.48;;;7.15;99.19
54872;BME280;43914;57.680;11.982;2022-11-15T07:28:27;100666.64;;;7.16;98.86
54872;BME280;43914;57.680;11.982;2022-11-15T07:30:57;100670.50;;;7.17;99.04
54872;BME280;43914;57.680;11.982;2022-11-15T07:33:22;100674.03;;;7.18;98.81
54872;BME280;43914;57.680;11.982;2022-11-15T07:35:50;100679.19;;;7.19;98.06
54872;BME280;43914;57.680;11.982;2022-11-15T07:38:17;100692.41;;;7.21;98.28
54872;BME280;43914;57.680;11.982;2022-11-15T07:40:46;100688.89;;;7.20;97.65
54872;BME280;43914;57.680;11.982;2022-11-15T07:43:13;100686.55;;;7.21;97.62
54872;BME280;43914;57.680;11.982;2022-11-15T07:45:45;100696.58;;;7.24;98.09
54872;BME280;43914;57.680;11.982;2022-11-15T07:48:11;100700.25;;;7.27;98.01
54872;BME280;43914;57.680;11.982;2022-11-15T07:50:42;100703.94;;;7.30;97.57
54872;BME280;43914;57.680;11.982;2022-11-15T07:53:09;100702.45;;;7.31;97.56
54872;BME280;43914;57.680;11.982;2022-11-15T07:55:36;100707.98;;;7.34;97.48
54872;BME280;43914;57.680;11.982;2022-11-15T07:58:05;100705.13;;;7.35;97.15
54872;BME280;43914;57.680;11.982;2022-11-15T08:00:33;100709.80;;;7.38;97.12
54872;BME280;43914;57.680;11.982;2022-11-15T08:03:11;100705.64;;;7.39;97.17
54872;BME280;43914;57.680;11.982;2022-11-15T08:05:39;100708.98;;;7.41;96.80
54872;BME280;43914;57.680;11.982;2022-11-15T08:08:07;100706.98;;;7.43;96.23
54872;BME280;43914;57.680;11.982;2022-11-15T08:10:35;100708.99;;;7.45;95.58
54872;BME280;43914;57.680;11.982;2022-11-15T08:13:06;100716.34;;;7.47;94.80
54872;BME280;43914;57.680;11.982;2022-11-15T08:15:34;100722.70;;;7.50;95.14
54872;BME280;43914;57.680;11.982;2022-11-15T08:18:03;100726.71;;;7.50;94.90
54872;BME280;43914;57.680;11.982;2022-11-15T08:20:37;100727.05;;;7.51;95.31
54872;BME280;43914;57.680;11.982;2022-11-15T08:23:04;100726.23;;;7.55;95.18
54872;BME280;43914;57.680;11.982;2022-11-15T08:25:32;100723.22;;;7.58;95.01
54872;BME280;43914;57.680;11.982;2022-11-15T08:28:01;100726.72;;;7.59;94.84
54872;BME280;43914;57.680;11.982;2022-11-15T08:30:30;100737.75;;;7.60;95.12
54872;BME280;43914;57.680;11.982;2022-11-15T08:32:58;100727.05;;;7.64;94.93
54872;BME280;43914;57.680;11.982;2022-11-15T08:35:24;100729.58;;;7.65;94.50
54872;BME280;43914;57.680;11.982;2022-11-15T08:37:52;100725.38;;;7.63;94.18
54872;BME280;43914;57.680;11.982;2022-11-15T08:40:19;100722.22;;;7.63;93.33
54872;BME280;43914;57.680;11.982;2022-11-15T08:42:48;100718.55;;;7.64;93.59
54872;BME280;43914;57.680;11.982;2022-11-15T08:45:14;100726.41;;;7.66;93.39
54872;BME280;43914;57.680;11.982;2022-11-15T08:47:40;100721.06;;;7.66;93.78
54872;BME280;43914;57.680;11.982;2022-11-15T08:50:07;100723.56;;;7.68;93.67
54872;BME280;43914;57.680;11.982;2022-11-15T08:52:34;100707.66;;;7.62;93.46
54872;BME280;43914;57.680;11.982;2022-11-15T08:55:00;100718.73;;;7.71;93.84
54872;BME280;43914;57.680;11.982;2022-11-15T08:57:28;100724.08;;;7.71;93.94
54872;BME280;43914;57.680;11.982;2022-11-15T08:59:59;100722.73;;;7.71;93.83
54872;BME280;43914;57.680;11.982;2022-11-15T09:02:25;100727.75;;;7.74;93.52
54872;BME280;43914;57.680;11.982;2022-11-15T09:04:51;100735.27;;;7.75;93.08
54872;BME280;43914;57.680;11.982;2022-11-15T09:07:17;100724.23;;;7.74;92.95
54872;BME280;43914;57.680;11.982;2022-11-15T09:09:43;100734.44;;;7.74;92.73
54872;BME280;43914;57.680;11.982;2022-11-15T09:12:09;100727.75;;;7.74;93.10
54872;BME280;43914;57.680;11.982;2022-11-15T09:14:35;100726.75;;;7.75;93.47
54872;BME280;43914;57.680;11.982;2022-11-15T09:17:06;100716.87;;;7.76;93.10
54872;BME280;43914;57.680;11.982;2022-11-15T09:19:31;100698.81;;;7.65;93.34
54872;BME280;43914;57.680;11.982;2022-11-15T09:21:57;100716.38;;;7.76;93.46
54872;BME280;43914;57.680;11.982;2022-11-15T09:24:23;100718.39;;;7.78;93.31
54872;BME280;43914;57.680;11.982;2022-11-15T09:26:50;100717.38;;;7.79;93.16
54872;BME280;43914;57.680;11.982;2022-11-15T09:29:17;100722.06;;;7.82;92.86
54872;BME280;43914;57.680;11.982;2022-11-15T09:31:43;100719.23;;;7.83;92.40
54872;BME280;43914;57.680;11.982;2022-11-15T09:34:09;100730.27;;;7.84;92.95
54872;BME280;43914;57.680;11.982;2022-11-15T09:36:35;100742.65;;;7.85;92.10
54872;BME280;43914;57.680;11.982;2022-11-15T09:39:01;100750.49;;;7.87;92.87
54872;BME280;43914;57.680;11.982;2022-11-15T09:50:11;100743.31;;;7.91;93.02
54872;BME280;43914;57.680;11.982;2022-11-15T09:52:41;100744.14;;;7.88;92.83
54872;BME280;43914;57.680;11.982;2022-11-15T09:55:12;100749.82;;;7.93;93.20
54872;BME280;43914;57.680;11.982;2022-11-15T09:57:59;100750.16;;;7.94;93.08
54872;BME280;43914;57.680;11.982;2022-11-15T10:00:34;100744.80;;;7.94;93.18
54872;BME280;43914;57.680;11.982;2022-11-15T10:03:25;100749.15;;;7.95;93.24
54872;BME280;43914;57.680;11.982;2022-11-15T10:05:59;100749.15;;;7.95;93.08
54872;BME280;43914;57.680;11.982;2022-11-15T10:11:32;100748.33;;;7.99;93.37
54872;BME280;43914;57.680;11.982;2022-11-15T10:14:13;100744.49;;;8.01;93.49
54872;BME280;43914;57.680;11.982;2022-11-15T10:16:59;100746.16;;;8.02;93.60
54872;BME280;43914;57.680;11.982;2022-11-15T10:19:58;100747.84;;;8.03;93.16
54872;BME280;43914;57.680;11.982;2022-11-15T10:25:23;100749.17;;;8.07;93.28
54872;BME280;43914;57.680;11.982;2022-11-15T10:27:56;100750.50;;;8.12;93.38
54872;BME280;43914;57.680;11.982;2022-11-15T10:30:50;100754.03;;;8.12;93.12
54872;BME280;43914;57.680;11.982;2022-11-15T10:36:17;100768.90;;;8.19;92.31
54872;BME280;43914;57.680;11.982;2022-11-15T10:46:37;100765.06;;;8.21;91.94
54872;BME280;43914;57.680;11.982;2022-11-15T10:49:17;100751.16;;;8.22;91.50
54872;BME280;43914;57.680;11.982;2022-11-15T10:51:52;100756.69;;;8.25;91.81
54872;BME280;43914;57.680;11.982;2022-11-15T10:54:27;100751.48;;;8.23;91.84
54872;BME280;43914;57.680;11.982;2022-11-15T10:56:58;100746.80;;;8.25;91.33
54872;BME280;43914;57.680;11.982;2022-11-15T10:59:33;100746.80;;;8.25;90.29
54872;BME280;43914;57.680;11.982;2022-11-15T11:02:02;100745.31;;;8.22;90.66
54872;BME280;43914;57.680;11.982;2022-11-15T11:04:28;100748.66;;;8.25;90.51
54872;BME280;43914;57.680;11.982;2022-11-15T11:06:56;100737.09;;;8.24;90.16
54872;BME280;43914;57.680;11.982;2022-11-15T11:09:38;100741.11;;;8.24;90.18
54872;BME280;43914;57.680;11.982;2022-11-15T11:12:11;100744.64;;;8.25;90.11
54872;BME280;43914;57.680;11.982;2022-11-15T11:14:39;100726.57;;;8.22;90.41
54872;BME280;43914;57.680;11.982;2022-11-15T11:17:16;100726.72;;;8.25;89.98
54872;BME280;43914;57.680;11.982;2022-11-15T11:19:50;100734.75;;;8.25;89.89
54872;BME280;43914;57.680;11.982;2022-11-15T11:22:40;100727.72;;;8.24;90.12
54872;BME280;43914;57.680;11.982;2022-11-15T11:31:43;100740.28;;;8.28;90.75
54872;BME280;43914;57.680;11.982;2022-11-15T11:40:30;100727.06;;;8.22;90.91
54872;BME280;43914;57.680;11.982;2022-11-15T11:46:14;100728.73;;;8.23;91.33
54872;BME280;43914;57.680;11.982;2022-11-15T11:48:51;100731.59;;;8.21;91.49
54872;BME280;43914;57.680;11.982;2022-11-15T11:51:27;100722.89;;;8.23;91.35
54872;BME280;43914;57.680;11.982;2022-11-15T11:56:48;100736.45;;;8.30;91.14
54872;BME280;43914;57.680;11.982;2022-11-15T12:02:19;100708.65;;;8.35;90.71
54872;BME280;43914;57.680;11.982;2022-11-15T12:04:50;100718.66;;;8.46;92.19
54872;BME280;43914;57.680;11.982;2022-11-15T12:07:24;100719.20;;;8.49;90.40
54872;BME280;43914;57.680;11.982;2022-11-15T12:13:07;100728.22;;;8.53;90.75
54872;BME280;43914;57.680;11.982;2022-11-15T12:15:57;100729.05;;;8.53;89.48
54872;BME280;43914;57.680;11.982;2022-11-15T12:18:25;100735.74;;;8.53;89.52
54872;BME280;43914;57.680;11.982;2022-11-15T12:20:58;100736.75;;;8.52;90.09
54872;BME280;43914;57.680;11.982;2022-11-15T12:23:32;100737.60;;;8.53;90.27
54872;BME280;43914;57.680;11.982;2022-11-15T12:26:09;100745.97;;;8.54;90.11
54872;BME280;43914;57.680;11.982;2022-11-15T12:28:47;100746.98;;;8.53;90.20
54872;BME280;43914;57.680;11.982;2022-11-15T12:31:19;100749.32;;;8.51;90.36
54872;BME280;43914;57.680;11.982;2022-11-15T12:33:54;100747.30;;;8.54;90.48
54872;BME280;43914;57.680;11.982;2022-11-15T12:36:35;100740.61;;;8.54;90.33
54872;BME280;43914;57.680;11.982;2022-11-15T12:39:05;100742.44;;;8.53;90.66
54872;BME280;43914;57.680;11.982;2022-11-15T12:41:44;100745.97;;;8.54;90.76
54872;BME280;43914;57.680;11.982;2022-11-15T12:49:48;100751.67;;;8.50;91.28
54872;BME280;43914;57.680;11.982;2022-11-15T12:52:15;100761.38;;;8.51;91.45
54872;BME280;43914;57.680;11.982;2022-11-15T12:54:50;100753.34;;;8.51;91.80
54872;BME280;43914;57.680;11.982;2022-11-15T12:57:29;100761.38;;;8.51;92.21
54872;BME280;43914;57.680;11.982;2022-11-15T13:00:00;100759.17;;;8.47;92.98
54872;BME280;43914;57.680;11.982;2022-11-15T13:10:30;100751.65;;;8.46;94.84
54872;BME280;43914;57.680;11.982;2022-11-15T13:13:02;100749.98;;;8.45;95.36
54872;BME280;43914;57.680;11.982;2022-11-15T13:15:35;100747.45;;;8.44;95.71
54872;BME280;43914;57.680;11.982;2022-11-15T13:21:04;100734.22;;;8.42;97.05
54872;BME280;43914;57.680;11.982;2022-11-15T13:23:34;100740.25;;;8.40;97.57
54872;BME280;43914;57.680;11.982;2022-11-15T13:26:09;100747.62;;;8.38;98.57
54872;BME280;43914;57.680;11.982;2022-11-15T13:28:43;100742.13;;;8.31;100.00
54872;BME280;43914;57.680;11.982;2022-11-15T13:34:24;100740.78;;;8.19;100.00
54872;BME280;43914;57.680;11.982;2022-11-15T13:36:54;100744.30;;;8.07;100.00
54872;BME280;43914;57.680;11.982;2022-11-15T13:39:29;100743.83;;;7.99;100.00
54872;BME280;43914;57.680;11.982;2022-11-15T13:41:58;100737.45;;;7.92;100.00
54872;BME280;43914;57.680;11.982;2022-11-15T13:44:31;100743.31;;;7.87;100.00
54872;BME280;43914;57.680;11.982;2022-11-15T13:47:14;100734.95;;;7.82;100.00
54872;BME280;43914;57.680;11.982;2022-11-15T13:49:42;100726.91;;;7.78;100.00
54872;BME280;43914;57.680;11.982;2022-11-15T13:52:11;100723.22;;;7.75;100.00
54872;BME280;43914;57.680;11.982;2022-11-15T13:55:04;100728.76;;;7.73;100.00
54872;BME280;43914;57.680;11.982;2022-11-15T14:00:38;100736.59;;;7.67;100.00
54872;BME280;43914;57.680;11.982;2022-11-15T14:03:15;100736.78;;;7.65;100.00
54872;BME280;43914;57.680;11.982;2022-11-15T14:06:10;100735.27;;;7.67;100.00
54872;BME280;43914;57.680;11.982;2022-11-15T14:08:57;100745.48;;;7.67;100.00
54872;BME280;43914;57.680;11.982;2022-11-15T14:11:24;100753.31;;;7.64;100.00
54872;BME280;43914;57.680;11.982;2022-11-15T14:16:45;100757.33;;;7.64;100.00
54872;BME280;43914;57.680;11.982;2022-11-15T14:27:34;100737.27;;;7.56;100.00
54872;BME280;43914;57.680;11.982;2022-11-15T14:30:02;100738.42;;;7.58;100.00
54872;BME280;43914;57.680;11.982;2022-11-15T14:32:37;100734.25;;;7.55;100.00
54872;BME280;43914;57.680;11.982;2022-11-15T14:35:20;100733.58;;;7.53;100.00
54872;BME280;43914;57.680;11.982;2022-11-15T14:37:48;100729.72;;;7.51;100.00
54872;BME280;43914;57.680;11.982;2022-11-15T14:40:18;100728.87;;;7.47;100.00
54872;BME280;43914;57.680;11.982;2022-11-15T14:42:47;100729.05;;;7.45;100.00
54872;BME280;43914;57.680;11.982;2022-11-15T14:45:19;100732.72;;;7.44;100.00
54872;BME280;43914;57.680;11.982;2022-11-15T14:47:47;100735.87;;;7.40;100.00
54872;BME280;43914;57.680;11.982;2022-11-15T14:50:20;100740.55;;;7.38;100.00
54872;BME280;43914;57.680;11.982;2022-11-15T14:52:48;100743.89;;;7.35;100.00
54872;BME280;43914;57.680;11.982;2022-11-15T14:55:21;100742.55;;;7.35;100.00